createdAt,value
2023-03-12T00:05:09.473Z,4.976588628762542
2023-03-12T00:11:27.628Z,4.869565217391305
2023-03-12T00:17:45.656Z,5.240802675585284
2023-03-12T00:24:04.134Z,5.849498327759197
2023-03-12T00:30:23.744Z,5.969899665551839
2023-03-12T00:36:43.901Z,5.3478260869565215
2023-03-12T00:45:39.564Z,5.511705685618729
2023-03-12T00:51:57.755Z,4.9397993311036785
2023-03-12T00:58:17.416Z,5.361204013377926
2023-03-12T01:04:39.219Z,4.909698996655519
2023-03-12T01:10:58.106Z,4.926421404682274
2023-03-12T01:17:17.606Z,5.431438127090301
2023-03-12T01:23:35.138Z,5.969899665551839
2023-03-12T01:29:54.267Z,5.678929765886288
2023-03-12T01:36:13.930Z,5.381270903010034
2023-03-12T01:42:32.200Z,5.862876254180602
2023-03-12T01:48:50.293Z,5.558528428093646
2023-03-12T01:55:08.820Z,6.234113712374582
2023-03-12T02:01:28.078Z,6.193979933110368
2023-03-12T02:07:48.443Z,5.936454849498328
2023-03-12T02:14:06.866Z,5.264214046822742
2023-03-12T02:20:25.805Z,5.260869565217392
2023-03-12T02:26:43.515Z,5.7558528428093645
2023-03-12T02:38:52.297Z,5.94314381270903
2023-03-12T02:47:57.696Z,7.872909698996655
2023-03-12T02:59:24.958Z,9.866220735785953
2023-03-12T03:05:44.070Z,7.40133779264214
2023-03-12T03:14:57.282Z,7.882943143812709
2023-03-12T03:21:31.810Z,8.127090301003344
2023-03-12T03:43:20.686Z,8.806020066889632
2023-03-12T03:49:42.131Z,7.996655518394649
2023-03-12T03:59:46.618Z,7.1806020066889635
2023-03-12T04:06:08.785Z,7.023411371237458
2023-03-12T04:12:30.170Z,7.036789297658863
2023-03-12T04:18:49.433Z,7.287625418060201
2023-03-12T04:25:09.713Z,7.5719063545150505
2023-03-12T04:32:00.125Z,7.367892976588629
2023-03-12T04:38:34.871Z,7.391304347826087
2023-03-12T04:44:56.894Z,7.25752508361204
2023-03-12T04:55:34.768Z,8.010033444816054
2023-03-12T05:01:54.235Z,8.247491638795987
2023-03-12T05:08:14.598Z,7.8361204013377925
2023-03-12T05:14:34.960Z,8.735785953177258
2023-03-12T05:20:59.202Z,7.829431438127091
2023-03-12T05:27:20.955Z,7.919732441471572
2023-03-12T05:33:41.507Z,9.006688963210703
2023-03-12T05:40:01.085Z,9.200668896321071
2023-03-12T05:46:22.309Z,9.03010033444816
2023-03-12T05:52:42.191Z,8.882943143812708
2023-03-12T05:59:03.415Z,8.806020066889632
2023-03-12T06:05:24.222Z,9.695652173913043
2023-03-12T06:16:39.250Z,9.765886287625419
2023-03-12T06:23:02.709Z,10.120401337792643
2023-03-12T06:29:24.220Z,10.645484949832776
2023-03-12T06:36:03.150Z,10.37458193979933
2023-03-12T06:46:37.343Z,10.759197324414716
2023-03-12T06:52:59.389Z,11.070234113712374
2023-03-12T07:09:43.100Z,12.749163879598662
2023-03-12T07:16:07.597Z,13.394648829431437
2023-03-12T07:22:32.811Z,13.996655518394649
2023-03-12T07:28:53.658Z,14.54180602006689
2023-03-12T07:40:40.967Z,15.608695652173912
2023-03-12T07:47:16.501Z,15.856187290969899
2023-03-12T07:53:44.340Z,15.441471571906355
2023-03-12T08:04:03.542Z,15.735785953177258
2023-03-12T08:10:24.854Z,15.23076923076923
2023-03-12T08:16:48.210Z,15.103678929765886
2023-03-12T08:23:09.843Z,15.22742474916388
2023-03-12T08:29:45.330Z,14.94314381270903
2023-03-12T08:36:07.193Z,14.812709030100335
2023-03-12T08:42:33.611Z,14.88628762541806
2023-03-12T08:49:16.467Z,14.464882943143813
2023-03-12T08:55:38.914Z,14.709030100334449
2023-03-12T09:02:01.491Z,14.20401337792642
2023-03-12T09:08:24.084Z,15.100334448160535
2023-03-12T09:15:02.943Z,14.357859531772576
2023-03-12T09:26:36.299Z,13.819397993311037
2023-03-12T09:33:30.797Z,13.34448160535117
2023-03-12T09:39:53.270Z,12.792642140468228
2023-03-12T09:46:16.494Z,12.474916387959865
2023-03-12T09:57:19.301Z,11.585284280936454
2023-03-12T10:09:34.706Z,11.397993311036789
2023-03-12T10:15:56.849Z,10.906354515050166
2023-03-12T10:26:30.960Z,10.381270903010034
2023-03-12T10:44:32.162Z,9.618729096989966
2023-03-12T10:50:57.593Z,9.354515050167224
2023-03-12T10:57:21.293Z,9.23076923076923
2023-03-12T11:03:44.365Z,8.351170568561873
2023-03-12T11:10:06.750Z,8.642140468227424
2023-03-12T11:16:32.011Z,7.361204013377926
2023-03-12T11:27:23.723Z,6.869565217391305
2023-03-12T11:33:45.531Z,7.431438127090301
2023-03-12T11:40:08.283Z,7.812709030100335
2023-03-12T11:48:07.296Z,8.351170568561873
2023-03-12T11:54:29.820Z,8.535117056856187
2023-03-12T12:00:54.889Z,8.561872909698996
2023-03-12T12:07:19.177Z,9.280936454849499
2023-03-12T12:13:47.560Z,9.103678929765886
2023-03-12T12:20:11.266Z,9.31438127090301
2023-03-12T12:26:34.687Z,9.618729096989966
2023-03-12T12:32:56.898Z,10.103678929765886
2023-03-12T12:42:05.614Z,10.568561872909699
2023-03-12T12:48:28.211Z,10.953177257525084
2023-03-12T13:05:08.197Z,10.384615384615385
2023-03-12T13:11:32.061Z,10.82943143812709
2023-03-12T13:18:54.718Z,11.785953177257525
2023-03-12T13:32:25.377Z,12.341137123745819
2023-03-12T13:38:48.659Z,11.578595317725753
2023-03-12T13:48:34.601Z,12.812709030100335
2023-03-12T13:56:57.324Z,12.367892976588628
2023-03-12T14:03:20.294Z,12.441471571906355
2023-03-12T14:09:42.889Z,11.200668896321071
2023-03-12T14:16:05.143Z,12.411371237458194
2023-03-12T14:22:25.986Z,12.364548494983278
2023-03-12T14:34:09.810Z,12.68227424749164
2023-03-12T14:40:31.374Z,13.588628762541806
2023-03-12T14:51:42.090Z,26.652173913043477
2023-03-12T14:58:04.468Z,18.615384615384617
2023-03-12T15:04:28.389Z,16.20066889632107
2023-03-12T15:11:28.933Z,15.327759197324415
2023-03-12T15:17:53.141Z,21.14715719063545
2023-03-12T15:29:43.760Z,19.023411371237458
2023-03-12T15:36:04.320Z,14.08695652173913
2023-03-12T15:42:26.062Z,22.434782608695652
2023-03-12T15:53:19.242Z,15.602006688963211
2023-03-12T15:59:39.956Z,16.08026755852843
2023-03-12T16:05:59.994Z,16.976588628762542
2023-03-12T16:12:20.698Z,17.551839464882942
2023-03-12T16:18:41.398Z,17.62541806020067
2023-03-12T16:25:01.281Z,18.120401337792643
2023-03-12T16:31:22.155Z,27.598662207357858
2023-03-12T16:41:08.242Z,20.070234113712374
2023-03-12T16:47:43.342Z,20.237458193979933
2023-03-12T16:55:03.965Z,19.849498327759196
2023-03-12T17:02:17.251Z,19.82274247491639
2023-03-12T17:08:36.972Z,20.765886287625417
2023-03-12T17:14:56.377Z,26.29096989966555
2023-03-12T17:21:16.476Z,21.77257525083612
2023-03-12T17:39:34.297Z,22.494983277591974
2023-03-12T17:47:13.362Z,27.17391304347826
2023-03-12T17:53:32.641Z,35.381270903010034
2023-03-12T17:59:53.726Z,54.69565217391305
2023-03-12T18:06:13.946Z,69.48494983277592
2023-03-12T18:12:34.139Z,46.876254180602004
2023-03-12T18:20:38.678Z,25.5752508361204
2023-03-12T18:27:00.045Z,22.528428093645484
2023-03-12T18:33:41.407Z,25.240802675585286
2023-03-12T18:40:00.683Z,35.03678929765886
2023-03-12T18:52:22.592Z,18.468227424749163
2023-03-12T18:58:42.463Z,17.68896321070234
2023-03-12T19:05:02.773Z,16.25083612040134
2023-03-12T19:23:39.445Z,14.939799331103679
2023-03-12T19:30:03.288Z,13.347826086956522
2023-03-12T19:36:26.955Z,12.033444816053512
2023-03-12T19:44:31.326Z,10.919732441471572
2023-03-12T19:50:51.528Z,9.869565217391305
2023-03-12T19:57:11.740Z,10.454849498327759
2023-03-12T20:03:31.879Z,10.167224080267559
2023-03-12T20:09:52.840Z,9.906354515050166
2023-03-12T20:18:09.694Z,9.591973244147157
2023-03-12T20:32:31.848Z,10.11371237458194
2023-03-12T20:38:52.681Z,10.177257525083611
2023-03-12T20:47:58.739Z,11.217391304347826
2023-03-12T21:00:22.049Z,11.993311036789297
2023-03-12T21:09:50.757Z,11.0
2023-03-12T21:20:24.499Z,8.819397993311037
2023-03-12T21:27:58.458Z,7.1638795986622075
2023-03-12T21:34:18.509Z,5.849498327759197
2023-03-12T21:43:53.440Z,5.381270903010034
2023-03-12T21:50:14.125Z,4.48494983277592
2023-03-12T21:56:33.792Z,4.749163879598663
2023-03-12T22:02:52.892Z,4.321070234113712
2023-03-12T22:09:11.789Z,4.234113712374582
2023-03-12T22:15:31.307Z,3.9866220735785953
2023-03-12T22:23:10.060Z,5.003344481605351
2023-03-12T22:29:28.765Z,4.287625418060201
2023-03-12T22:35:46.878Z,3.9063545150501673
2023-03-12T22:42:04.782Z,4.170568561872909
2023-03-12T22:48:46.456Z,4.481605351170568
2023-03-12T22:55:05.072Z,4.344481605351171
2023-03-12T23:01:25.080Z,5.545150501672241
2023-03-12T23:12:59.044Z,5.334448160535117
2023-03-12T23:19:17.947Z,5.294314381270903
2023-03-12T23:25:36.599Z,5.916387959866221
2023-03-12T23:31:55.760Z,6.066889632107023
2023-03-12T23:42:19.968Z,6.6120401337792645
2023-03-12T23:51:44.469Z,6.050167224080267
